Overview Statistics Trail Chart Weather Telemetry Raw packets
 

This is the latest recevied weather packets stored in our database for station/object OK2ILA-10. If no packets are shown the sender has not sent any weather packets the latest 10 day(s).

<< 89 90 91 92 93 94 95 >>
Time Temp. Humidity Pressure Rain* Wind** Luminosity Snow
1787901098 26.11° C 44% 1019.1 hPa - - - -
1787900503 25.56° C 46% 1018.9 hPa - - - -
1787900498 25.56° C 46% 1018.9 hPa - - - -
1787899903 23.89° C 49% 1018.9 hPa - - - -
1787899898 23.89° C 49% 1018.9 hPa - - - -
1787899303 22.78° C 52% 1018.8 hPa - - - -
1787899297 22.78° C 52% 1018.8 hPa - - - -
1787898697 21.67° C 55% 1018.9 hPa - - - -
1787898097 20.56° C 58% 1019 hPa - - - -
1787897497 18.89° C 63% 1019 hPa - - - -
1787896903 17.78° C 67% 1019.1 hPa - - - -
1787896897 17.78° C 67% 1019.1 hPa - - - -
1787896305 16.67° C 70% 1019.2 hPa - - - -
1787896305 16.67° C 70% 1019.2 hPa - - - -
1787895696 15.56° C 72% 1019.1 hPa - - - -
1787895096 15° C 73% 1019.2 hPa - - - -
1787894496 14.44° C 74% 1019.2 hPa - - - -
1787893895 13.89° C 74% 1019.4 hPa - - - -
1787889746 12.78° C 77% 1019.3 hPa - - - -
1787884945 12.78° C 76% 1019.3 hPa - - - -
1787884345 12.78° C 76% 1019.3 hPa - - - -
1787883745 13.33° C 76% 1019.3 hPa - - - -
1787883144 13.33° C 76% 1019.3 hPa - - - -
1787882544 13.33° C 76% 1019.4 hPa - - - -
1787881344 13.33° C 75% 1019.5 hPa - - - -

* Rain since midnight (hover to see other rain measurements)
** Current wind speed in m/s (hover to see current wind gust speed)